Time;durP1;ratioP1;P1;durP2;ratioP2;P2;SDS_P1;SDS_P2;PMS_P1;PMS_P2;Temp;Humidity;BMP_temperature;BMP_pressure;BME280_temperature;BME280_humidity;BME280_pressure;Samples;Min_cycle;Max_cycle;Signal;HPM_P1;HPM_P2
2021/03/10 00:01:21;;;;;;;10.27;2.00;;;;;;;;;;4342162;32;20179;-80
2021/03/10 00:03:50;;;;;;;9.63;2.42;;;;;;;;;;4346263;32;20161;-79
2021/03/10 00:06:17;;;;;;;10.43;2.25;;;;;;;;;;4344017;32;20098;-80
2021/03/10 00:08:45;;;;;;;14.38;2.60;;;;;;;;;;4346237;32;20099;-80
2021/03/10 00:11:13;;;;;;;8.65;2.15;;;;;;;;;;4342364;32;20056;-79
2021/03/10 00:13:41;;;;;;;8.00;2.17;;;;;;;;;;4346610;32;20076;-81
2021/03/10 00:16:09;;;;;;;12.50;2.10;;;;;;;;;;4345741;32;20107;-83
2021/03/10 00:18:37;;;;;;;14.57;2.20;;;;;;;;;;4335887;32;20783;-79
2021/03/10 00:21:05;;;;;;;10.32;2.30;;;;;;;;;;4340783;32;20051;-80
2021/03/10 00:23:33;;;;;;;8.80;2.42;;;;;;;;;;4356946;32;20158;-77
2021/03/10 00:26:02;;;;;;;9.40;2.72;;;;;;;;;;4352693;32;20150;-80
2021/03/10 00:28:30;;;;;;;9.90;2.50;;;;;;;;;;4344757;32;20060;-80
2021/03/10 00:30:58;;;;;;;13.57;2.45;;;;;;;;;;4356612;32;20059;-79
2021/03/10 00:33:40;;;;;;;10.68;2.40;;;;;;;;;;4355291;32;20438;-79
2021/03/10 00:36:08;;;;;;;5.68;1.83;;;;;;;;;;4356461;32;20498;-81
2021/03/10 00:38:37;;;;;;;11.48;2.40;;;;;;;;;;4348468;32;20145;-80
2021/03/10 00:41:06;;;;;;;7.20;2.00;;;;;;;;;;4365258;32;20059;-80
2021/03/10 00:43:35;;;;;;;13.68;2.53;;;;;;;;;;4356313;32;20043;-81
2021/03/10 00:46:05;;;;;;;9.10;2.22;;;;;;;;;;4358088;32;20140;-81
2021/03/10 00:48:33;;;;;;;7.20;1.95;;;;;;;;;;4353018;32;20481;-80
2021/03/10 00:51:02;;;;;;;11.35;3.15;;;;;;;;;;4364941;32;20363;-82
2021/03/10 00:53:31;;;;;;;10.00;2.65;;;;;;;;;;4359748;32;20438;-81
2021/03/10 00:55:59;;;;;;;11.50;2.75;;;;;;;;;;4352483;32;20059;-79
2021/03/10 00:58:27;;;;;;;10.30;2.20;;;;;;;;;;4350027;32;20103;-79
2021/03/10 01:00:55;;;;;;;8.57;1.95;;;;;;;;;;4348465;32;20443;-80
2021/03/10 01:03:23;;;;;;;6.12;2.37;;;;;;;;;;4357681;32;20111;-79
2021/03/10 01:05:51;;;;;;;10.63;2.80;;;;;;;;;;4349422;32;20118;-79
2021/03/10 01:08:20;;;;;;;8.98;2.28;;;;;;;;;;4353297;32;20047;-80
2021/03/10 01:10:48;;;;;;;10.85;2.55;;;;;;;;;;4360257;32;20060;-81
2021/03/10 01:13:19;;;;;;;14.13;2.83;;;;;;;;;;4354616;32;20075;-83
2021/03/10 01:15:48;;;;;;;12.05;2.33;;;;;;;;;;4354486;32;20067;-79
2021/03/10 01:18:17;;;;;;;7.22;2.33;;;;;;;;;;4354815;32;20052;-80
2021/03/10 01:20:45;;;;;;;8.82;1.98;;;;;;;;;;4355995;32;20047;-81
2021/03/10 01:23:14;;;;;;;13.95;3.00;;;;;;;;;;4362011;32;20056;-81
2021/03/10 01:25:42;;;;;;;9.18;2.42;;;;;;;;;;4359434;32;20097;-80
2021/03/10 01:28:10;;;;;;;16.05;2.80;;;;;;;;;;4346828;32;20378;-79
2021/03/10 01:30:38;;;;;;;5.37;1.67;;;;;;;;;;4350576;32;20111;-81
2021/03/10 01:33:06;;;;;;;12.32;2.33;;;;;;;;;;4352972;32;20111;-79
2021/03/10 01:35:34;;;;;;;11.60;2.40;;;;;;;;;;4352120;32;20370;-84
2021/03/10 01:38:02;;;;;;;8.63;2.35;;;;;;;;;;4344066;32;20048;-81
2021/03/10 01:40:30;;;;;;;8.95;2.08;;;;;;;;;;4348454;32;20052;-79
2021/03/10 01:43:04;;;;;;;9.10;1.95;;;;;;;;;;4350328;32;20071;-78
2021/03/10 01:45:33;;;;;;;11.35;2.47;;;;;;;;;;4347142;32;20032;-80
2021/03/10 01:48:01;;;;;;;7.95;2.40;;;;;;;;;;4342712;32;20144;-80
2021/03/10 01:50:30;;;;;;;12.90;3.05;;;;;;;;;;4344658;32;20126;-78
2021/03/10 01:52:59;;;;;;;10.65;2.47;;;;;;;;;;4336579;32;20056;-79
2021/03/10 01:55:31;;;;;;;6.05;1.90;;;;;;;;;;4366985;32;20112;-79
2021/03/10 01:58:01;;;;;;;14.07;2.72;;;;;;;;;;4359118;32;20089;-79
2021/03/10 02:00:29;;;;;;;9.18;2.20;;;;;;;;;;4349902;32;20052;-80
2021/03/10 02:02:58;;;;;;;9.20;2.35;;;;;;;;;;4348411;32;20153;-83
2021/03/10 02:05:27;;;;;;;14.75;2.87;;;;;;;;;;4361849;32;20070;-81
2021/03/10 02:07:55;;;;;;;14.20;2.83;;;;;;;;;;4359463;32;20101;-82
2021/03/10 02:10:26;;;;;;;6.47;2.08;;;;;;;;;;4355310;32;20573;-80
2021/03/10 02:13:13;;;;;;;12.20;3.67;;;;;;;;;;4364562;32;20486;-81
2021/03/10 02:15:53;;;;;;;11.98;3.15;;;;;;;;;;4360460;32;21262;-80
2021/03/10 02:18:33;;;;;;;10.05;2.53;;;;;;;;;;4355645;32;20394;-79
2021/03/10 02:21:02;;;;;;;11.40;2.95;;;;;;;;;;4368586;32;20070;-80
2021/03/10 02:23:33;;;;;;;10.65;2.80;;;;;;;;;;4353450;32;20072;-82
2021/03/10 02:26:16;;;;;;;7.53;2.35;;;;;;;;;;4350711;32;20064;-78
2021/03/10 02:28:45;;;;;;;12.43;2.42;;;;;;;;;;4354091;32;20076;-80
2021/03/10 02:31:13;;;;;;;11.63;2.30;;;;;;;;;;4344676;32;20413;-80
2021/03/10 02:33:44;;;;;;;7.18;2.12;;;;;;;;;;4350593;32;20055;-80
2021/03/10 02:36:14;;;;;;;8.13;2.40;;;;;;;;;;4359592;32;20126;-80
2021/03/10 02:38:44;;;;;;;8.35;2.33;;;;;;;;;;4357668;32;20099;-78
2021/03/10 02:41:14;;;;;;;10.35;2.50;;;;;;;;;;4355326;32;20200;-79
2021/03/10 02:43:43;;;;;;;9.25;2.67;;;;;;;;;;4367759;32;20111;-80
2021/03/10 02:46:12;;;;;;;10.73;2.58;;;;;;;;;;4363540;32;20091;-80
2021/03/10 02:48:43;;;;;;;12.50;2.83;;;;;;;;;;4343523;32;20109;-80
2021/03/10 02:51:11;;;;;;;11.73;2.75;;;;;;;;;;4350477;32;20115;-79
2021/03/10 02:53:40;;;;;;;9.02;2.72;;;;;;;;;;4354648;32;20193;-80
2021/03/10 02:56:12;;;;;;;10.57;2.20;;;;;;;;;;4347723;32;20112;-80
2021/03/10 02:58:41;;;;;;;4.95;1.80;;;;;;;;;;4347120;32;20073;-78
2021/03/10 03:01:10;;;;;;;9.20;2.33;;;;;;;;;;4360415;32;20106;-79
2021/03/10 03:03:39;;;;;;;8.77;1.92;;;;;;;;;;4357340;32;21341;-79
2021/03/10 03:06:06;;;;;;;9.45;2.60;;;;;;;;;;4348129;32;20078;-79
2021/03/10 03:08:35;;;;;;;14.50;3.12;;;;;;;;;;4352047;32;20075;-79
2021/03/10 03:11:06;;;;;;;8.45;2.25;;;;;;;;;;4411299;27;20168;-94
2021/03/10 03:13:34;;;;;;;12.63;2.62;;;;;;;;;;4349321;32;20658;-92
2021/03/10 03:16:10;;;;;;;10.15;2.62;;;;;;;;;;4349204;32;20086;-93
2021/03/10 03:18:53;;;;;;;11.43;2.10;;;;;;;;;;4341613;32;20086;-93
2021/03/10 03:21:34;;;;;;;13.48;3.03;;;;;;;;;;4348125;32;20078;-94
2021/03/10 03:24:11;;;;;;;9.75;2.53;;;;;;;;;;4350501;32;20086;-93
2021/03/10 03:26:50;;;;;;;13.98;2.87;;;;;;;;;;4349371;32;20063;-93
2021/03/10 03:29:21;;;;;;;8.75;2.42;;;;;;;;;;4362801;32;20504;-94
2021/03/10 03:32:03;;;;;;;13.62;3.15;;;;;;;;;;4358724;32;20509;-93
2021/03/10 03:34:38;;;;;;;12.37;2.33;;;;;;;;;;4357380;32;20071;-93
2021/03/10 03:37:38;;;;;;;18.73;3.62;;;;;;;;;;4351017;32;20410;-93
2021/03/10 03:40:13;;;;;;;11.77;2.97;;;;;;;;;;4359759;32;20111;-94
2021/03/10 03:42:56;;;;;;;14.77;2.72;;;;;;;;;;4349020;32;20055;-93
2021/03/10 03:45:45;;;;;;;13.50;3.20;;;;;;;;;;4343027;32;22136;-94
2021/03/10 03:48:14;;;;;;;10.55;2.53;;;;;;;;;;4346787;32;20047;-93
2021/03/10 03:51:06;;;;;;;13.57;2.50;;;;;;;;;;4348770;32;20444;-93
2021/03/10 03:53:39;;;;;;;11.95;2.97;;;;;;;;;;4359930;32;20056;-94
2021/03/10 03:56:07;;;;;;;21.05;2.92;;;;;;;;;;4353646;32;20108;-94
2021/03/10 03:58:41;;;;;;;;;;;;;;;;;;4349700;32;20055;-94
2021/03/10 04:01:32;;;;;;;16.30;2.45;;;;;;;;;;4347876;32;19942;-94
2021/03/10 04:04:06;;;;;;;;;;;;;;;;;;4348572;32;20091;-93
2021/03/10 04:06:34;;;;;;;19.73;3.20;;;;;;;;;;4343332;33;19943;-94
2021/03/10 04:09:15;;;;;;;10.60;2.58;;;;;;;;;;4351046;32;20519;-93
2021/03/10 04:11:53;;;;;;;7.95;2.28;;;;;;;;;;4346927;32;20095;-93
2021/03/10 04:14:27;;;;;;;14.15;2.70;;;;;;;;;;4344870;32;20048;-93
2021/03/10 04:17:03;;;;;;;14.38;2.83;;;;;;;;;;4349405;32;20047;-96
2021/03/10 04:19:36;;;;;;;11.35;2.67;;;;;;;;;;4349059;32;20156;-94
2021/03/10 04:22:04;;;;;;;11.52;3.00;;;;;;;;;;4345275;32;20129;-94
2021/03/10 04:28:11;;;;;;;9.40;2.55;;;;;;;;;;4349585;32;20069;-93
2021/03/10 04:30:46;;;;;;;12.45;2.50;;;;;;;;;;4345452;32;20611;-92
2021/03/10 04:33:14;;;;;;;10.15;2.50;;;;;;;;;;4345396;32;20074;-94
2021/03/10 04:35:56;;;;;;;12.65;2.85;;;;;;;;;;4348053;32;20456;-93
2021/03/10 04:38:29;;;;;;;10.98;2.55;;;;;;;;;;4346723;32;20048;-94
2021/03/10 04:41:10;;;;;;;13.23;3.00;;;;;;;;;;4360207;32;20055;-95
2021/03/10 04:43:43;;;;;;;12.80;2.62;;;;;;;;;;4350224;33;20414;-93
2021/03/10 04:46:16;;;;;;;12.55;3.08;;;;;;;;;;4347827;32;20073;-93
2021/03/10 04:48:55;;;;;;;9.70;2.72;;;;;;;;;;4346333;32;20075;-94
2021/03/10 04:51:25;;;;;;;7.78;1.95;;;;;;;;;;4342395;32;20055;-93
2021/03/10 04:53:53;;;;;;;10.60;3.08;;;;;;;;;;4347633;32;20063;-95
2021/03/10 04:56:47;;;;;;;16.40;2.78;;;;;;;;;;4344918;32;20118;-93
2021/03/10 05:02:44;;;;;;;10.40;2.53;;;;;;;;;;4356634;32;20383;-94
2021/03/10 05:05:15;;;;;;;16.15;3.12;;;;;;;;;;4345124;32;20138;-94
2021/03/10 05:07:57;;;;;;;7.87;2.67;;;;;;;;;;4344335;32;20043;-95
2021/03/10 05:10:27;;;;;;;12.55;3.40;;;;;;;;;;4341842;32;20675;-95
2021/03/10 05:13:03;;;;;;;11.02;3.28;;;;;;;;;;4344516;32;20085;-92
2021/03/10 05:15:36;;;;;;;11.53;2.57;;;;;;;;;;4344468;32;20147;-93
2021/03/10 05:18:08;;;;;;;9.48;2.85;;;;;;;;;;4331602;32;20810;-93
2021/03/10 05:20:40;;;;;;;8.15;2.65;;;;;;;;;;4344334;32;20069;-94
2021/03/10 05:23:13;;;;;;;12.27;2.97;;;;;;;;;;4347169;32;20052;-93
2021/03/10 05:25:41;;;;;;;6.68;2.25;;;;;;;;;;4342700;32;20064;-95
2021/03/10 05:28:14;;;;;;;9.90;2.35;;;;;;;;;;4345294;32;20051;-93
2021/03/10 05:30:43;;;;;;;11.18;2.72;;;;;;;;;;4346782;32;20086;-94
2021/03/10 05:33:11;;;;;;;6.62;2.58;;;;;;;;;;4345917;32;20066;-94
2021/03/10 05:35:44;;;;;;;9.68;2.67;;;;;;;;;;4338667;32;20085;-94
2021/03/10 05:38:18;;;;;;;8.52;2.83;;;;;;;;;;4355947;32;20050;-94
2021/03/10 05:41:25;;;;;;;10.23;2.95;;;;;;;;;;4349784;32;20067;-93
2021/03/10 05:43:58;;;;;;;7.50;2.78;;;;;;;;;;4352588;32;20403;-94
2021/03/10 05:47:01;;;;;;;10.25;2.90;;;;;;;;;;4339659;32;20123;-93
2021/03/10 05:49:45;;;;;;;13.55;3.20;;;;;;;;;;4355174;32;20136;-94
2021/03/10 05:52:38;;;;;;;17.08;3.90;;;;;;;;;;4344517;32;20051;-94
2021/03/10 05:55:10;;;;;;;13.52;3.60;;;;;;;;;;4345238;32;20054;-93
2021/03/10 05:57:46;;;;;;;9.90;2.95;;;;;;;;;;4357446;32;20080;-94
2021/03/10 06:00:29;;;;;;;;;;;;;;;;;;4357988;32;20055;-93
2021/03/10 06:03:11;;;;;;;13.20;2.85;;;;;;;;;;4355034;32;19965;-94
2021/03/10 06:05:46;;;;;;;10.57;2.90;;;;;;;;;;4334792;33;20047;-94
2021/03/10 06:08:20;;;;;;;10.07;3.05;;;;;;;;;;4344959;32;20128;-95
2021/03/10 06:10:56;;;;;;;12.80;3.33;;;;;;;;;;4342916;33;20078;-94
2021/03/10 06:13:30;;;;;;;12.43;3.10;;;;;;;;;;4340057;33;20096;-94
2021/03/10 06:16:06;;;;;;;12.98;4.22;;;;;;;;;;4344020;33;20086;-93
2021/03/10 06:18:45;;;;;;;10.10;2.80;;;;;;;;;;4343034;32;20448;-94
2021/03/10 06:21:17;;;;;;;14.05;3.10;;;;;;;;;;4353379;33;20060;-93
2021/03/10 06:24:00;;;;;;;11.65;3.72;;;;;;;;;;4344622;33;20048;-94
2021/03/10 06:26:49;;;;;;;11.30;3.00;;;;;;;;;;4345693;33;20110;-93
2021/03/10 06:29:18;;;;;;;9.38;3.10;;;;;;;;;;4356245;32;20103;-93
2021/03/10 06:32:09;;;;;;;11.80;3.33;;;;;;;;;;4344535;33;20435;-95
2021/03/10 06:34:53;;;;;;;15.13;3.40;;;;;;;;;;4358137;32;20070;-93
2021/03/10 06:37:27;;;;;;;;;;;;;;;;;;4340944;33;20067;-93
2021/03/10 06:40:11;;;;;;;18.17;3.87;;;;;;;;;;4346236;33;19955;-96
2021/03/10 06:42:52;;;;;;;10.32;3.45;;;;;;;;;;4344991;33;20044;-96
2021/03/10 06:45:34;;;;;;;19.42;3.97;;;;;;;;;;4349456;33;20055;-96
2021/03/10 06:48:17;;;;;;;14.85;3.08;;;;;;;;;;4366027;32;20051;-96
2021/03/10 06:50:52;;;;;;;16.48;3.85;;;;;;;;;;4347489;33;20109;-96
2021/03/10 06:53:33;;;;;;;11.73;3.20;;;;;;;;;;4344033;33;20097;-96
2021/03/10 06:56:34;;;;;;;19.40;4.45;;;;;;;;;;4346989;33;20137;-95
2021/03/10 06:59:20;;;;;;;15.38;3.60;;;;;;;;;;4346870;33;20071;-96
2021/03/10 07:02:12;;;;;;;14.87;3.70;;;;;;;;;;4357409;32;20079;-96
2021/03/10 07:04:51;;;;;;;11.82;2.55;;;;;;;;;;4346264;33;20083;-96
2021/03/10 07:07:21;;;;;;;10.02;2.92;;;;;;;;;;4341206;33;20056;-96
2021/03/10 07:09:55;;;;;;;17.75;3.37;;;;;;;;;;4355929;32;20931;-95
2021/03/10 07:12:55;;;;;;;13.18;3.42;;;;;;;;;;4356931;32;20106;-95
2021/03/10 07:15:30;;;;;;;15.73;3.62;;;;;;;;;;4341315;33;20052;-95
2021/03/10 07:18:04;;;;;;;;;;;;;;;;;;4341585;33;20181;-96
2021/03/10 07:20:33;;;;;;;13.93;3.90;;;;;;;;;;4322436;33;19951;-96
2021/03/10 07:26:01;;;;;;;15.48;3.95;;;;;;;;;;4341682;33;20074;-95
2021/03/10 07:28:38;;;;;;;14.25;3.87;;;;;;;;;;4340342;33;20346;-95
2021/03/10 07:31:17;;;;;;;16.00;5.35;;;;;;;;;;4328359;33;20646;-95
2021/03/10 07:33:55;;;;;;;15.70;4.25;;;;;;;;;;4325098;33;20107;-96
2021/03/10 07:36:40;;;;;;;11.90;3.97;;;;;;;;;;4330776;33;20380;-95
2021/03/10 07:39:25;;;;;;;16.15;3.95;;;;;;;;;;4327871;33;20096;-94
2021/03/10 07:42:16;;;;;;;15.20;3.80;;;;;;;;;;4329708;33;20048;-96
2021/03/10 07:44:58;;;;;;;13.55;4.53;;;;;;;;;;4330760;33;20448;-96
2021/03/10 07:47:26;;;;;;;10.43;3.53;;;;;;;;;;4338979;33;20428;-95
2021/03/10 07:50:01;;;;;;;9.87;3.80;;;;;;;;;;4325730;33;20084;-96
2021/03/10 07:52:29;;;;;;;18.50;7.70;;;;;;;;;;4329167;33;20215;-96
2021/03/10 07:55:20;;;;;;;17.60;8.52;;;;;;;;;;4330181;33;20067;-96
2021/03/10 07:57:58;;;;;;;15.77;8.32;;;;;;;;;;4328060;33;20031;-96
2021/03/10 08:00:45;;;;;;;18.80;8.30;;;;;;;;;;4344154;33;20040;-94
2021/03/10 08:03:35;;;;;;;11.65;7.25;;;;;;;;;;4344704;33;20138;-95
2021/03/10 08:06:10;;;;;;;16.15;7.18;;;;;;;;;;4333944;33;20080;-96
2021/03/10 08:08:39;;;;;;;15.65;6.00;;;;;;;;;;4325628;33;20503;-94
2021/03/10 08:11:16;;;;;;;14.85;6.12;;;;;;;;;;4336815;33;20134;-95
2021/03/10 08:13:59;;;;;;;11.73;5.50;;;;;;;;;;4340325;33;20087;-95
2021/03/10 08:16:47;;;;;;;15.85;6.80;;;;;;;;;;4336173;33;20061;-94
2021/03/10 08:19:33;;;;;;;13.88;5.20;;;;;;;;;;4328337;33;20103;-96
2021/03/10 08:22:07;;;;;;;12.07;3.30;;;;;;;;;;4344005;33;20048;-94
2021/03/10 08:24:49;;;;;;;16.35;4.05;;;;;;;;;;4342900;33;20322;-94
2021/03/10 08:27:31;;;;;;;12.18;3.90;;;;;;;;;;4329189;33;20051;-96
2021/03/10 08:30:03;;;;;;;10.98;3.20;;;;;;;;;;4328008;33;20546;-96
2021/03/10 08:32:35;;;;;;;12.20;4.00;;;;;;;;;;4329785;33;20111;-95
2021/03/10 08:35:18;;;;;;;12.43;3.30;;;;;;;;;;4338684;33;20056;-96
2021/03/10 08:37:50;;;;;;;;;;;;;;;;;;4328509;33;20074;-96
2021/03/10 08:40:28;;;;;;;14.80;5.30;;;;;;;;;;4331548;33;19959;-96
2021/03/10 08:43:13;;;;;;;9.48;3.50;;;;;;;;;;4331784;33;20072;-96
2021/03/10 08:46:02;;;;;;;11.63;3.20;;;;;;;;;;4331792;33;20589;-95
2021/03/10 08:48:52;;;;;;;11.48;3.40;;;;;;;;;;4328175;33;20155;-96
2021/03/10 08:51:27;;;;;;;9.98;3.33;;;;;;;;;;4326260;33;20100;-96
2021/03/10 08:54:19;;;;;;;10.15;2.90;;;;;;;;;;4339914;33;20055;-95
2021/03/10 08:56:49;;;;;;;10.77;3.15;;;;;;;;;;4328577;33;20476;-95
2021/03/10 08:59:20;;;;;;;8.75;3.25;;;;;;;;;;4330583;33;20491;-95
2021/03/10 09:01:54;;;;;;;9.70;3.00;;;;;;;;;;4328258;33;20082;-95
2021/03/10 09:04:23;;;;;;;7.78;2.92;;;;;;;;;;4329424;33;20040;-96
2021/03/10 09:06:56;;;;;;;9.38;3.60;;;;;;;;;;4343166;33;20432;-96
2021/03/10 09:09:43;;;;;;;11.10;4.10;;;;;;;;;;4333432;33;20060;-95
2021/03/10 09:12:16;;;;;;;12.45;3.28;;;;;;;;;;4332637;32;20090;-96
2021/03/10 09:14:49;;;;;;;12.98;3.95;;;;;;;;;;4356240;32;20073;-95
2021/03/10 09:17:36;;;;;;;10.18;3.33;;;;;;;;;;4345231;32;20137;-95
2021/03/10 09:20:10;;;;;;;14.00;3.80;;;;;;;;;;4348688;32;20107;-96
2021/03/10 09:22:43;;;;;;;13.48;3.28;;;;;;;;;;4348572;32;20073;-95
2021/03/10 09:25:16;;;;;;;11.18;4.32;;;;;;;;;;4354209;32;20071;-94
2021/03/10 09:27:51;;;;;;;12.27;3.28;;;;;;;;;;4347018;32;20097;-96
2021/03/10 09:30:26;;;;;;;14.10;4.28;;;;;;;;;;4346793;32;20059;-94
2021/03/10 09:32:55;;;;;;;11.50;3.62;;;;;;;;;;4342922;32;20822;-95
2021/03/10 09:35:33;;;;;;;7.12;3.53;;;;;;;;;;4341726;32;20384;-94
2021/03/10 09:38:09;;;;;;;9.18;3.12;;;;;;;;;;4346099;32;20060;-95
2021/03/10 09:40:40;;;;;;;10.35;3.65;;;;;;;;;;4345481;32;20047;-94
2021/03/10 09:43:28;;;;;;;8.45;2.80;;;;;;;;;;4362310;32;20114;-95
2021/03/10 09:46:04;;;;;;;8.97;3.03;;;;;;;;;;4350324;32;20142;-95
2021/03/10 09:48:39;;;;;;;13.13;3.37;;;;;;;;;;4347935;32;20070;-93
2021/03/10 09:51:19;;;;;;;11.15;3.65;;;;;;;;;;4348217;32;20090;-93
2021/03/10 09:53:51;;;;;;;8.55;3.00;;;;;;;;;;4339370;32;20071;-95
2021/03/10 09:56:23;;;;;;;10.68;3.40;;;;;;;;;;4351891;32;20451;-95
2021/03/10 09:58:59;;;;;;;15.07;3.75;;;;;;;;;;4341032;32;20057;-95
2021/03/10 10:01:30;;;;;;;7.72;2.62;;;;;;;;;;4346253;32;20623;-96
2021/03/10 10:04:10;;;;;;;12.05;3.40;;;;;;;;;;4345872;32;20135;-93
2021/03/10 10:06:55;;;;;;;11.27;4.22;;;;;;;;;;4337272;32;20137;-94
2021/03/10 10:09:27;;;;;;;13.35;4.47;;;;;;;;;;4348677;32;20120;-95
2021/03/10 10:12:11;;;;;;;11.35;3.60;;;;;;;;;;4340743;32;20055;-96
2021/03/10 10:14:45;;;;;;;9.43;3.30;;;;;;;;;;4342096;32;20062;-95
2021/03/10 10:17:19;;;;;;;11.50;3.85;;;;;;;;;;4349958;32;20044;-96
2021/03/10 10:19:48;;;;;;;15.98;3.83;;;;;;;;;;4350719;32;20048;-94
2021/03/10 10:22:28;;;;;;;11.20;3.15;;;;;;;;;;4356730;32;20079;-96
2021/03/10 10:24:57;;;;;;;8.60;3.50;;;;;;;;;;4366181;32;20085;-96
2021/03/10 10:27:31;;;;;;;12.68;4.47;;;;;;;;;;4355695;32;20048;-96
2021/03/10 10:30:04;;;;;;;10.77;3.50;;;;;;;;;;4354862;32;20051;-96
2021/03/10 10:32:40;;;;;;;12.82;4.57;;;;;;;;;;4367954;32;20165;-96
2021/03/10 10:35:17;;;;;;;9.80;3.92;;;;;;;;;;4351169;33;20048;-96
2021/03/10 10:38:01;;;;;;;11.12;3.62;;;;;;;;;;4352141;32;20051;-96
2021/03/10 10:40:44;;;;;;;10.25;3.53;;;;;;;;;;4365463;32;20043;-96
2021/03/10 10:43:29;;;;;;;;;;;;;;;;;;4370710;32;20051;-96
2021/03/10 10:46:03;;;;;;;8.90;2.78;;;;;;;;;;4354938;32;20518;-96
2021/03/10 10:48:32;;;;;;;8.73;2.92;;;;;;;;;;4340588;33;20405;-96
2021/03/10 10:51:04;;;;;;;9.32;2.97;;;;;;;;;;4354285;32;20047;-95
2021/03/10 10:53:36;;;;;;;9.07;2.85;;;;;;;;;;4353843;32;20051;-96
2021/03/10 10:56:06;;;;;;;10.05;3.70;;;;;;;;;;4366321;32;20081;-96
2021/03/10 10:58:38;;;;;;;12.80;3.40;;;;;;;;;;4368265;32;20137;-96
2021/03/10 11:01:10;;;;;;;10.93;3.72;;;;;;;;;;4343318;32;20055;-96
2021/03/10 11:03:42;;;;;;;9.27;2.97;;;;;;;;;;4355193;32;20051;-96
2021/03/10 11:06:18;;;;;;;9.68;2.97;;;;;;;;;;4354879;32;20055;-97
2021/03/10 11:08:52;;;;;;;9.18;3.12;;;;;;;;;;4352946;32;20061;-95
2021/03/10 11:11:21;;;;;;;9.95;3.30;;;;;;;;;;4353572;32;20081;-96
2021/03/10 11:13:52;;;;;;;8.20;3.47;;;;;;;;;;4353401;33;20052;-96
2021/03/10 11:16:23;;;;;;;12.20;3.40;;;;;;;;;;4354609;32;20063;-95
2021/03/10 11:18:54;;;;;;;11.65;3.62;;;;;;;;;;4351081;33;20043;-96
2021/03/10 11:21:23;;;;;;;12.02;3.20;;;;;;;;;;4339030;33;20115;-96
2021/03/10 11:24:08;;;;;;;9.65;3.28;;;;;;;;;;4350910;33;20070;-96
2021/03/10 11:26:38;;;;;;;10.80;3.60;;;;;;;;;;4343887;32;20095;-96
2021/03/10 11:29:07;;;;;;;11.10;3.42;;;;;;;;;;4364043;32;20073;-96
2021/03/10 11:31:45;;;;;;;13.65;3.90;;;;;;;;;;4351228;32;20055;-95
2021/03/10 11:34:15;;;;;;;22.02;3.42;;;;;;;;;;4364306;32;20058;-95
2021/03/10 11:36:47;;;;;;;9.82;3.28;;;;;;;;;;4350877;32;20073;-96
2021/03/10 11:39:22;;;;;;;10.48;3.33;;;;;;;;;;4363946;32;20099;-96
2021/03/10 11:41:51;;;;;;;14.35;3.60;;;;;;;;;;4347425;32;20109;-96
2021/03/10 11:44:21;;;;;;;11.32;3.25;;;;;;;;;;4353093;32;20086;-96
2021/03/10 11:46:54;;;;;;;13.62;3.80;;;;;;;;;;4352643;32;20061;-96
2021/03/10 11:49:29;;;;;;;12.18;3.05;;;;;;;;;;4354429;32;20055;-96
2021/03/10 11:51:58;;;;;;;10.73;3.62;;;;;;;;;;4352492;32;20067;-95
2021/03/10 11:54:32;;;;;;;9.15;3.33;;;;;;;;;;4350912;32;20047;-96
2021/03/10 11:57:01;;;;;;;12.10;3.37;;;;;;;;;;4352030;32;20051;-96
2021/03/10 11:59:32;;;;;;;9.98;3.08;;;;;;;;;;4351110;32;20079;-96
2021/03/10 12:02:04;;;;;;;13.05;3.53;;;;;;;;;;4350950;32;20055;-96
2021/03/10 12:04:36;;;;;;;9.00;3.00;;;;;;;;;;4350127;32;20074;-95
2021/03/10 12:07:07;;;;;;;13.02;3.67;;;;;;;;;;4350860;32;20064;-95
2021/03/10 12:09:37;;;;;;;11.95;3.42;;;;;;;;;;4349248;32;20082;-96
2021/03/10 12:12:13;;;;;;;11.85;3.78;;;;;;;;;;4348779;32;20402;-96
2021/03/10 12:14:44;;;;;;;9.95;3.97;;;;;;;;;;4341439;33;20464;-95
2021/03/10 12:17:13;;;;;;;12.77;3.37;;;;;;;;;;4323674;33;20059;-96
2021/03/10 12:19:43;;;;;;;8.32;3.12;;;;;;;;;;4329479;33;20427;-95
2021/03/10 12:22:13;;;;;;;9.45;3.12;;;;;;;;;;4340707;33;20048;-96
2021/03/10 12:24:45;;;;;;;9.65;3.85;;;;;;;;;;4335876;33;20082;-95
2021/03/10 12:27:23;;;;;;;7.85;2.90;;;;;;;;;;4342385;33;20095;-93
2021/03/10 12:29:52;;;;;;;13.23;3.67;;;;;;;;;;4340880;32;20052;-95
2021/03/10 12:32:21;;;;;;;8.98;3.33;;;;;;;;;;4340222;33;20134;-96
2021/03/10 12:34:52;;;;;;;10.40;3.20;;;;;;;;;;4329339;33;20082;-94
2021/03/10 12:37:21;;;;;;;10.18;3.83;;;;;;;;;;4340003;33;20051;-96
2021/03/10 12:39:54;;;;;;;13.52;3.83;;;;;;;;;;4328808;33;20611;-95
2021/03/10 12:42:22;;;;;;;9.95;3.28;;;;;;;;;;4341038;33;20063;-96
2021/03/10 12:44:51;;;;;;;11.30;3.28;;;;;;;;;;4332417;33;20462;-96
2021/03/10 12:47:20;;;;;;;12.02;3.30;;;;;;;;;;4330767;33;20056;-95
2021/03/10 12:49:48;;;;;;;13.85;3.10;;;;;;;;;;4352971;32;20137;-96
2021/03/10 12:52:16;;;;;;;9.85;3.60;;;;;;;;;;4329284;33;20094;-96
2021/03/10 12:54:53;;;;;;;10.07;3.42;;;;;;;;;;4321164;33;20483;-96
2021/03/10 13:01:08;;;;;;;13.98;3.25;;;;;;;;;;4327784;33;20072;-95
2021/03/10 13:04:06;;;;;;;10.80;3.90;;;;;;;;;;4331309;33;20099;-95
2021/03/10 13:06:44;;;;;;;11.18;3.50;;;;;;;;;;4307834;33;20123;-95
2021/03/10 13:09:33;;;;;;;7.32;3.03;;;;;;;;;;4302474;33;20063;-96
2021/03/10 13:12:09;;;;;;;;;;;;;;;;;;4309864;33;20064;-95
2021/03/10 13:15:21;;;;;;;12.55;3.37;;;;;;;;;;4313619;33;19997;-96
2021/03/10 13:18:24;;;;;;;8.30;3.17;;;;;;;;;;4318355;33;20130;-96
2021/03/10 13:21:24;;;;;;;7.68;2.97;;;;;;;;;;4331730;33;20057;-95
2021/03/10 13:24:22;;;;;;;13.57;3.78;;;;;;;;;;4299600;33;20061;-95
2021/03/10 13:26:57;;;;;;;7.50;2.80;;;;;;;;;;4303992;33;20088;-95
2021/03/10 13:29:30;;;;;;;12.10;3.55;;;;;;;;;;4316551;33;20052;-96
2021/03/10 13:32:01;;;;;;;8.98;3.30;;;;;;;;;;4304077;33;20123;-96
2021/03/10 13:34:48;;;;;;;12.57;3.25;;;;;;;;;;4321326;33;20079;-96
2021/03/10 13:38:11;;;;;;;15.32;3.25;;;;;;;;;;4337944;33;20515;-95
2021/03/10 13:40:40;;;;;;;10.75;3.28;;;;;;;;;;4343228;33;20047;-94
2021/03/10 13:43:09;;;;;;;11.70;3.78;;;;;;;;;;4333226;33;20161;-94
2021/03/10 13:45:39;;;;;;;9.02;3.20;;;;;;;;;;4335340;33;20095;-96
2021/03/10 13:48:10;;;;;;;12.45;3.17;;;;;;;;;;4344822;33;20311;-96
2021/03/10 13:50:44;;;;;;;13.00;3.60;;;;;;;;;;4334421;33;20064;-96
2021/03/10 13:53:14;;;;;;;14.70;4.15;;;;;;;;;;4332688;33;20056;-96
2021/03/10 13:56:05;;;;;;;12.13;3.53;;;;;;;;;;4352090;33;20091;-96
2021/03/10 13:58:47;;;;;;;12.52;3.30;;;;;;;;;;4340225;33;20052;-96
2021/03/10 14:01:20;;;;;;;11.57;3.28;;;;;;;;;;4330368;33;20048;-96
2021/03/10 14:04:07;;;;;;;8.57;3.10;;;;;;;;;;4347041;33;20099;-96
2021/03/10 14:06:46;;;;;;;16.90;3.50;;;;;;;;;;4338877;33;20075;-95
2021/03/10 14:09:22;;;;;;;7.20;3.00;;;;;;;;;;4336820;33;20056;-96
2021/03/10 14:12:00;;;;;;;15.80;3.58;;;;;;;;;;4341205;33;20041;-96
2021/03/10 14:14:30;;;;;;;9.15;2.75;;;;;;;;;;4352555;33;20062;-95
2021/03/10 14:17:04;;;;;;;14.13;3.37;;;;;;;;;;4350023;33;20232;-95
2021/03/10 14:19:34;;;;;;;10.98;3.30;;;;;;;;;;4350949;33;20063;-95
2021/03/10 14:22:15;;;;;;;11.48;3.45;;;;;;;;;;4363735;32;20059;-96
2021/03/10 14:24:56;;;;;;;14.73;3.35;;;;;;;;;;4366248;32;20078;-95
2021/03/10 14:27:42;;;;;;;13.05;3.65;;;;;;;;;;4362458;33;20132;-94
2021/03/10 14:30:26;;;;;;;12.60;3.60;;;;;;;;;;4352348;33;20066;-96
2021/03/10 14:32:57;;;;;;;8.70;3.60;;;;;;;;;;4364812;32;20094;-94
2021/03/10 14:35:40;;;;;;;11.75;3.37;;;;;;;;;;4349906;33;20063;-96
2021/03/10 14:38:14;;;;;;;14.80;3.65;;;;;;;;;;4349712;33;20079;-95
2021/03/10 14:40:45;;;;;;;8.15;3.30;;;;;;;;;;4362468;32;20061;-96
2021/03/10 14:43:22;;;;;;;8.00;3.00;;;;;;;;;;4350267;33;20154;-95
2021/03/10 14:45:54;;;;;;;14.02;3.90;;;;;;;;;;4348446;32;20082;-96
2021/03/10 14:48:28;;;;;;;;;;;;;;;;;;4362803;33;20060;-96
2021/03/10 14:51:05;;;;;;;15.65;3.87;;;;;;;;;;4365396;32;19955;-96
2021/03/10 14:53:36;;;;;;;8.23;3.00;;;;;;;;;;4361733;33;20048;-95
2021/03/10 14:56:06;;;;;;;12.68;3.53;;;;;;;;;;4350468;33;20081;-94
2021/03/10 14:58:35;;;;;;;18.70;3.75;;;;;;;;;;4347500;33;20059;-96
2021/03/10 15:01:04;;;;;;;13.25;4.07;;;;;;;;;;4359591;33;20044;-95
2021/03/10 15:03:36;;;;;;;10.70;3.45;;;;;;;;;;4349138;33;20479;-96
2021/03/10 15:06:10;;;;;;;12.50;3.62;;;;;;;;;;4348480;33;20043;-95
2021/03/10 15:08:39;;;;;;;11.63;3.22;;;;;;;;;;4346639;33;20103;-96
2021/03/10 15:11:08;;;;;;;11.65;3.42;;;;;;;;;;4348833;33;20486;-94
2021/03/10 15:13:37;;;;;;;15.77;3.65;;;;;;;;;;4337167;33;21716;-95
2021/03/10 15:16:20;;;;;;;22.70;4.78;;;;;;;;;;4338893;33;20071;-95
2021/03/10 15:18:56;;;;;;;10.75;2.67;;;;;;;;;;4341384;32;20052;-95
2021/03/10 15:21:25;;;;;;;12.50;3.58;;;;;;;;;;4348290;33;20464;-95
2021/03/10 15:23:57;;;;;;;10.52;2.60;;;;;;;;;;4344924;33;20089;-95
2021/03/10 15:26:37;;;;;;;9.98;2.90;;;;;;;;;;4335447;33;20066;-95
2021/03/10 15:29:06;;;;;;;11.35;3.08;;;;;;;;;;4344232;33;20142;-94
2021/03/10 15:31:35;;;;;;;14.23;3.10;;;;;;;;;;4343987;33;20063;-96
2021/03/10 15:34:04;;;;;;;9.23;3.40;;;;;;;;;;4346886;33;20036;-94
2021/03/10 15:36:53;;;;;;;10.63;2.90;;;;;;;;;;4337311;33;20091;-95